Time;durP1;ratioP1;P1;durP2;ratioP2;P2;SDS_P1;SDS_P2;PMS_P1;PMS_P2;Temp;Humidity;BMP_temperature;BMP_pressure;BME280_temperature;BME280_humidity;BME280_pressure;Samples;Min_cycle;Max_cycle;Signal;HPM_P1;HPM_P2
2023/01/03 00:01:47;;;;;;;;;;;;;;;6.73;100.00;93561.38;5077433;28;19920;-84
2023/01/03 00:04:13;;;;;;;;;;;;;;;6.72;100.00;93562.44;5059688;28;20370;-84
2023/01/03 00:06:48;;;;;;;;;;;;;;;6.72;100.00;93559.81;5077119;28;19909;-84
2023/01/03 00:09:15;;;;;;;;;;;;;;;6.71;100.00;93553.06;5077541;28;19982;-84
2023/01/03 00:14:34;;;;;;;;;;;;;;;6.81;100.00;93568.81;5060178;28;19916;-83
2023/01/03 00:17:00;;;;;;;;;;;;;;;6.76;100.00;93560.94;5076340;28;19917;-84
2023/01/03 00:19:26;;;;;;;;;;;;;;;6.75;100.00;93567.16;5059903;28;20049;-84
2023/01/03 00:21:52;;;;;;;;;;;;;;;6.73;100.00;93566.59;5077054;28;19947;-83
2023/01/03 00:24:17;;;;;;;;;;;;;;;6.70;100.00;93561.88;5077129;28;19912;-84
2023/01/03 00:26:43;;;;;;;;;;;;;;;6.71;100.00;93562.66;5058316;28;20002;-84
2023/01/03 00:29:10;;;;;;;;;;;;;;;6.70;100.00;93559.25;5075760;28;20409;-83
2023/01/03 00:31:36;;;;;;;;;;;;;;;6.70;100.00;93564.47;5075617;28;19912;-83
2023/01/03 00:34:01;;;;;;;;;;;;;;;6.69;100.00;93557.69;5075867;28;19923;-83
2023/01/03 00:36:26;;;;;;;;;;;;;;;6.68;100.00;93550.91;5075467;28;20447;-83
2023/01/03 00:38:52;;;;;;;;;;;;;;;6.69;100.00;93549.91;5075394;28;20469;-84
2023/01/03 00:41:18;;;;;;;;;;;;;;;6.69;100.00;93557.69;5075302;28;19999;-85
2023/01/03 00:43:45;;;;;;;;;;;;;;;6.71;100.00;93553.06;5056579;28;19922;-84
2023/01/03 00:46:11;;;;;;;;;;;;;;;6.68;100.00;93556.88;5075360;28;19912;-84
2023/01/03 00:48:37;;;;;;;;;;;;;;;6.73;100.00;93556.19;5074670;28;20045;-84
2023/01/03 00:51:08;;;;;;;;;;;;;;;6.70;100.00;93556.66;5075421;28;19943;-84
2023/01/03 00:53:35;;;;;;;;;;;;;;;6.67;100.00;93552.72;5074912;28;19912;-84
2023/01/03 00:56:01;;;;;;;;;;;;;;;6.67;100.00;93557.16;5068923;28;19968;-84
2023/01/03 00:58:28;;;;;;;;;;;;;;;6.65;100.00;93554.78;5054761;28;19965;-84
2023/01/03 01:00:54;;;;;;;;;;;;;;;6.65;100.00;93553.97;5054427;28;20169;-84
2023/01/03 01:03:19;;;;;;;;;;;;;;;6.65;100.00;93553.97;5055223;28;19921;-84
2023/01/03 01:05:44;;;;;;;;;;;;;;;6.65;100.00;93552.16;5062387;28;19919;-85
2023/01/03 01:08:10;;;;;;;;;;;;;;;6.65;100.00;93552.16;5074337;28;19926;-85
2023/01/03 01:10:40;;;;;;;;;;;;;;;6.69;100.00;93552.50;5074876;28;19916;-84
2023/01/03 01:13:06;;;;;;;;;;;;;;;6.73;100.00;93550.97;5056853;28;20374;-84
2023/01/03 01:15:32;;;;;;;;;;;;;;;6.73;100.00;93552.78;5070947;28;19913;-84
2023/01/03 01:17:57;;;;;;;;;;;;;;;6.70;100.00;93559.25;5054518;28;19923;-84
2023/01/03 01:20:23;;;;;;;;;;;;;;;6.70;100.00;93555.88;5054730;28;19920;-84
2023/01/03 01:22:48;;;;;;;;;;;;;;;6.67;100.00;93557.16;5053612;28;20012;-84
2023/01/03 01:25:14;;;;;;;;;;;;;;;6.66;100.00;93560.75;5061721;28;19968;-84
2023/01/03 01:27:39;;;;;;;;;;;;;;;6.64;100.00;93557.59;5074414;28;19923;-84
2023/01/03 01:30:05;;;;;;;;;;;;;;;6.65;100.00;93569.59;5074207;28;20377;-83
2023/01/03 01:32:30;;;;;;;;;;;;;;;6.63;100.00;93566.44;5056513;28;19920;-84
2023/01/03 01:34:56;;;;;;;;;;;;;;;6.63;100.00;93567.22;5055987;28;20019;-84
2023/01/03 01:37:21;;;;;;;;;;;;;;;6.63;100.00;93562.00;5056919;28;19955;-84
2023/01/03 01:39:47;;;;;;;;;;;;;;;6.65;100.00;93556.59;5074079;28;19920;-84
2023/01/03 01:44:56;;;;;;;;;;;;;;;6.71;100.00;93553.06;5075134;28;19912;-84
2023/01/03 01:47:40;;;;;;;;;;;;;;;6.86;100.00;93555.09;5055787;28;19908;-84
2023/01/03 01:50:05;;;;;;;;;;;;;;;6.99;100.00;93554.78;5074287;28;19913;-84
2023/01/03 01:52:32;;;;;;;;;;;;;;;6.95;100.00;93558.88;5074268;28;19912;-84
2023/01/03 01:55:01;;;;;;;;;;;;;;;6.84;100.00;93551.94;5039233;28;20263;-83
2023/01/03 01:57:27;;;;;;;;;;;;;;;6.77;100.00;93546.88;5074050;28;19912;-84
2023/01/03 01:59:53;;;;;;;;;;;;;;;6.73;100.00;93550.19;5055138;28;20393;-85
2023/01/03 02:02:19;;;;;;;;;;;;;;;6.67;100.00;93557.16;5072680;28;19923;-84
2023/01/03 02:04:46;;;;;;;;;;;;;;;6.66;100.00;93560.75;5073824;28;19995;-85
2023/01/03 02:07:12;;;;;;;;;;;;;;;6.64;100.00;93552.41;5073257;28;19908;-85
2023/01/03 02:09:37;;;;;;;;;;;;;;;6.64;100.00;93558.41;5073574;28;20008;-85
2023/01/03 02:15:11;;;;;;;;;;;;;;;6.62;100.00;93551.84;5072965;28;19919;-84
2023/01/03 02:17:36;;;;;;;;;;;;;;;6.60;100.00;93546.88;5074235;28;19923;-84
2023/01/03 02:20:01;;;;;;;;;;;;;;;6.65;100.00;93551.38;5055212;28;19916;-84
2023/01/03 02:22:46;;;;;;;;;;;;;;;6.64;100.00;93553.19;5076858;28;19961;-84
2023/01/03 02:25:34;;;;;;;;;;;;;;;6.63;100.00;93545.63;5077671;28;19912;-83
2023/01/03 02:28:18;;;;;;;;;;;;;;;6.63;100.00;93545.63;5058195;28;19912;-85
2023/01/03 02:31:02;;;;;;;;;;;;;;;6.61;100.00;93547.66;5077390;28;19913;-84
2023/01/03 02:33:31;;;;;;;;;;;;;;;6.61;100.00;93547.66;5078376;28;20392;-85
2023/01/03 02:36:16;;;;;;;;;;;;;;;6.59;100.00;93547.13;5080847;28;19994;-85
2023/01/03 02:38:53;;;;;;;;;;;;;;;6.60;100.00;93553.91;5079015;28;19920;-85
2023/01/03 02:41:19;;;;;;;;;;;;;;;6.80;100.00;93550.81;5058933;28;20428;-85
2023/01/03 02:43:55;;;;;;;;;;;;;;;6.76;100.00;93547.91;5077058;28;19913;-84
2023/01/03 02:46:33;;;;;;;;;;;;;;;6.70;100.00;93541.06;5077373;28;20382;-85
2023/01/03 02:49:11;;;;;;;;;;;;;;;6.68;100.00;93543.88;5075071;28;19919;-84
2023/01/03 02:51:40;;;;;;;;;;;;;;;6.59;100.00;93541.91;5097428;28;20223;-84
2023/01/03 02:54:20;;;;;;;;;;;;;;;6.56;100.00;93537.97;5079539;28;19918;-85
2023/01/03 02:56:59;;;;;;;;;;;;;;;6.56;100.00;93537.19;5056307;28;19916;-84
2023/01/03 02:59:32;;;;;;;;;;;;;;;6.54;100.00;93534.03;5077009;28;19912;-84
2023/01/03 03:01:58;;;;;;;;;;;;;;;6.54;100.00;93528.81;5077187;28;20238;-84
2023/01/03 03:04:23;;;;;;;;;;;;;;;6.53;100.00;93527.22;5076816;28;19920;-85
2023/01/03 03:07:07;;;;;;;;;;;;;;;6.53;100.00;93525.44;5076479;28;20007;-84
2023/01/03 03:13:11;;;;;;;;;;;;;;;6.53;100.00;93529.84;5074794;28;19916;-85
2023/01/03 03:15:04;;;;;;;;;;;;;;;6.52;100.00;93533.47;5069300;28;20292;-84
2023/01/03 03:17:30;;;;;;;;;;;;;;;6.56;100.00;93524.19;5070174;28;19916;-84
2023/01/03 03:25:50;;;;;;;;;;;;;;;6.59;100.00;93526.31;5096945;28;20378;-84
2023/01/03 03:28:36;;;;;;;;;;;;;;;6.54;100.00;93527.00;5073268;28;19912;-83
2023/01/03 03:31:14;;;;;;;;;;;;;;;6.57;100.00;93528.34;5069108;28;19978;-83
2023/01/03 03:33:48;;;;;;;;;;;;;;;6.61;100.00;93521.66;5077545;28;19912;-84
2023/01/03 03:36:16;;;;;;;;;;;;;;;6.60;100.00;93530.50;5085255;28;19912;-83
2023/01/03 03:38:43;;;;;;;;;;;;;;;6.57;100.00;93533.56;5072252;28;20366;-83
2023/01/03 03:47:04;;;;;;;;;;;;;;;6.52;100.00;93523.84;5062574;28;19935;-85
2023/01/03 03:49:36;;;;;;;;;;;;;;;6.52;100.00;93523.84;5079374;28;19935;-84
2023/01/03 03:52:04;;;;;;;;;;;;;;;6.54;100.00;93523.63;5079331;28;19934;-84
2023/01/03 03:54:33;;;;;;;;;;;;;;;6.52;100.00;93523.84;5079169;28;19959;-85
2023/01/03 03:57:03;;;;;;;;;;;;;;;6.52;100.00;93523.06;5079000;28;20409;-85
2023/01/03 03:59:30;;;;;;;;;;;;;;;6.53;100.00;93524.63;5077503;28;20365;-84
2023/01/03 04:01:57;;;;;;;;;;;;;;;6.53;100.00;93522.03;5078176;28;19924;-85
2023/01/03 04:04:26;;;;;;;;;;;;;;;6.52;100.00;93523.06;5060702;28;19916;-86
2023/01/03 04:06:52;;;;;;;;;;;;;;;6.53;100.00;93519.44;5077688;28;19916;-85
2023/01/03 04:09:17;;;;;;;;;;;;;;;6.60;100.00;93520.88;5060331;28;19912;-85
2023/01/03 04:11:43;;;;;;;;;;;;;;;6.75;100.00;93527.31;5077211;28;19990;-85
2023/01/03 04:14:08;;;;;;;;;;;;;;;6.70;100.00;93519.44;5077382;28;20031;-85
2023/01/03 04:16:36;;;;;;;;;;;;;;;6.62;100.00;93516.22;5058945;28;20362;-84
2023/01/03 04:19:03;;;;;;;;;;;;;;;6.60;100.00;93517.50;5059172;28;19912;-85
2023/01/03 04:21:28;;;;;;;;;;;;;;;6.58;100.00;93516.94;5058699;28;19920;-84
2023/01/03 04:23:54;;;;;;;;;;;;;;;6.55;100.00;93518.19;5077014;28;19912;-85
2023/01/03 04:26:19;;;;;;;;;;;;;;;6.55;100.00;93523.41;5076590;28;19926;-85
2023/01/03 04:28:44;;;;;;;;;;;;;;;6.53;100.00;93519.44;5077624;28;20013;-84
2023/01/03 04:31:10;;;;;;;;;;;;;;;6.53;100.00;93524.63;5076438;28;19916;-84
2023/01/03 04:33:35;;;;;;;;;;;;;;;6.51;100.00;93522.28;5076324;28;19951;-85
2023/01/03 04:36:01;;;;;;;;;;;;;;;6.51;100.00;93527.50;5076166;28;19916;-84
2023/01/03 04:38:26;;;;;;;;;;;;;;;6.51;100.00;93519.69;5075844;28;19916;-85
2023/01/03 04:40:51;;;;;;;;;;;;;;;6.51;100.00;93518.88;5076070;28;19948;-82
2023/01/03 04:46:01;;;;;;;;;;;;;;;6.51;100.00;93518.88;5075969;28;19916;-84
2023/01/03 04:48:26;;;;;;;;;;;;;;;6.51;100.00;93522.28;5075666;28;19992;-83
2023/01/03 04:50:53;;;;;;;;;;;;;;;6.50;100.00;93515.50;5075960;28;20006;-83
2023/01/03 04:53:18;;;;;;;;;;;;;;;6.54;100.00;93523.63;5076282;28;20314;-84
2023/01/03 04:55:47;;;;;;;;;;;;;;;6.54;100.00;93527.00;5058332;28;19912;-84
2023/01/03 04:58:13;;;;;;;;;;;;;;;6.54;100.00;93526.22;5075733;28;19924;-85
2023/01/03 05:00:38;;;;;;;;;;;;;;;6.46;100.00;93525.59;5056943;28;19927;-85
2023/01/03 05:03:04;;;;;;;;;;;;;;;6.44;100.00;93527.63;5075372;28;19916;-84
2023/01/03 05:05:29;;;;;;;;;;;;;;;6.41;100.00;93533.28;5075277;28;19952;-84
2023/01/03 05:07:54;;;;;;;;;;;;;;;6.39;100.00;93529.34;5075063;28;19916;-84
2023/01/03 05:10:20;;;;;;;;;;;;;;;6.37;100.00;93532.19;5057321;28;19975;-84
2023/01/03 05:12:58;;;;;;;;;;;;;;;6.36;100.00;93535.03;5075568;28;20011;-84
2023/01/03 05:15:24;;;;;;;;;;;;;;;6.36;100.00;93541.00;5060228;28;19920;-84
2023/01/03 05:17:50;;;;;;;;;;;;;;;6.36;100.00;93541.00;5063626;28;19991;-84
2023/01/03 05:25:49;;;;;;;;;;;;;;;6.35;100.00;93549.03;5083017;28;19920;-85
2023/01/03 05:28:15;;;;;;;;;;;;;;;6.41;100.00;93553.31;5077884;28;19973;-84
2023/01/03 05:30:40;;;;;;;;;;;;;;;6.38;100.00;93546.78;5090823;28;20007;-85
2023/01/03 05:33:05;;;;;;;;;;;;;;;6.34;100.00;93544.88;5097409;28;19923;-85
2023/01/03 05:35:31;;;;;;;;;;;;;;;6.35;100.00;93549.03;5096783;28;19912;-85
2023/01/03 05:37:56;;;;;;;;;;;;;;;6.34;100.00;93558.66;5082701;28;19967;-84
2023/01/03 05:40:22;;;;;;;;;;;;;;;6.35;100.00;93555.06;5058571;28;19958;-85
2023/01/03 05:42:47;;;;;;;;;;;;;;;6.35;100.00;93560.25;5076048;28;19918;-85
2023/01/03 05:45:12;;;;;;;;;;;;;;;6.33;100.00;93557.09;5057813;28;19920;-85
2023/01/03 05:47:38;;;;;;;;;;;;;;;6.35;100.00;93559.44;5082528;28;19915;-84
2023/01/03 05:50:03;;;;;;;;;;;;;;;6.34;100.00;93563.84;5095687;28;20073;-83
2023/01/03 05:52:29;;;;;;;;;;;;;;;6.35;100.00;93559.44;5096362;28;19912;-85
2023/01/03 05:54:54;;;;;;;;;;;;;;;6.35;100.00;93565.44;5095683;28;19931;-85
2023/01/03 05:57:20;;;;;;;;;;;;;;;6.35;100.00;93562.84;5085893;28;20310;-84
2023/01/03 05:59:45;;;;;;;;;;;;;;;6.35;100.00;93560.25;5075472;28;19916;-85
2023/01/03 06:02:10;;;;;;;;;;;;;;;6.36;100.00;93556.63;5075446;28;19912;-85
2023/01/03 06:04:36;;;;;;;;;;;;;;;6.36;100.00;93556.63;5057744;28;19975;-84
2023/01/03 06:07:02;;;;;;;;;;;;;;;6.38;100.00;93570.19;5076421;28;19920;-85
2023/01/03 06:09:27;;;;;;;;;;;;;;;6.39;100.00;93571.75;5074911;28;19912;-84
2023/01/03 06:11:54;;;;;;;;;;;;;;;6.40;100.00;93572.56;5075242;28;20029;-84
2023/01/03 06:14:19;;;;;;;;;;;;;;;6.38;100.00;93569.41;5075726;28;19916;-85
2023/01/03 06:19:28;;;;;;;;;;;;;;;6.32;100.00;93573.69;5056017;28;20003;-84
2023/01/03 06:21:54;;;;;;;;;;;;;;;6.33;100.00;93577.91;5072142;28;20001;-83
2023/01/03 06:24:19;;;;;;;;;;;;;;;6.36;100.00;93572.22;5073824;28;19912;-83
2023/01/03 06:26:45;;;;;;;;;;;;;;;6.37;100.00;93575.59;5075605;28;19935;-83
2023/01/03 06:29:10;;;;;;;;;;;;;;;6.37;100.00;93571.22;5057498;28;19920;-83
2023/01/03 06:31:36;;;;;;;;;;;;;;;6.37;100.00;93573.81;5074861;28;20283;-84
2023/01/03 06:34:02;;;;;;;;;;;;;;;6.38;100.00;93566.78;5086032;28;19970;-83
2023/01/03 06:36:28;;;;;;;;;;;;;;;6.43;100.00;93577.28;5059692;28;19924;-84
2023/01/03 06:38:53;;;;;;;;;;;;;;;6.43;100.00;93578.06;5084221;28;19921;-84
2023/01/03 06:41:19;;;;;;;;;;;;;;;6.41;100.00;93574.91;5083874;28;20371;-83
2023/01/03 06:43:45;;;;;;;;;;;;;;;6.47;100.00;93578.41;5074851;28;19916;-83
2023/01/03 06:54:25;;;;;;;;;;;;;;;6.37;100.00;93583.41;5073784;28;19934;-85
2023/01/03 06:56:51;;;;;;;;;;;;;;;6.36;100.00;93582.63;5073948;28;20389;-84
2023/01/03 06:59:17;;;;;;;;;;;;;;;6.33;100.00;93583.09;5059675;28;20396;-84
2023/01/03 07:01:43;;;;;;;;;;;;;;;6.32;100.00;93585.91;5093453;28;19923;-84
2023/01/03 07:04:09;;;;;;;;;;;;;;;6.31;100.00;93590.34;5094175;28;19919;-84
2023/01/03 07:06:34;;;;;;;;;;;;;;;6.32;100.00;93586.69;5095821;28;20333;-84
2023/01/03 07:08:59;;;;;;;;;;;;;;;6.32;100.00;93588.53;5081870;28;19961;-84
2023/01/03 07:11:25;;;;;;;;;;;;;;;6.33;100.00;93592.72;5099286;28;20014;-84
2023/01/03 07:13:59;;;;;;;;;;;;;;;6.33;100.00;93590.13;5098458;28;20019;-84
2023/01/03 07:16:25;;;;;;;;;;;;;;;6.33;100.00;93596.09;5091093;28;19920;-85
2023/01/03 07:18:51;;;;;;;;;;;;;;;6.34;100.00;93597.66;5077084;28;19938;-84
2023/01/03 07:21:16;;;;;;;;;;;;;;;6.36;100.00;93602.66;5093713;28;20257;-84
2023/01/03 07:23:42;;;;;;;;;;;;;;;6.40;100.00;93601.16;5099002;28;19976;-83
2023/01/03 07:26:07;;;;;;;;;;;;;;;6.37;100.00;93599.81;5095985;28;19923;-84
2023/01/03 07:28:34;;;;;;;;;;;;;;;6.39;100.00;93607.38;5099357;28;19920;-84
2023/01/03 07:31:03;;;;;;;;;;;;;;;6.43;100.00;93604.06;5081554;28;19900;-84
2023/01/03 07:33:29;;;;;;;;;;;;;;;6.41;100.00;93605.34;5098207;28;19930;-84
2023/01/03 07:36:02;;;;;;;;;;;;;;;6.42;100.00;93605.09;5080032;28;19973;-84
2023/01/03 07:38:27;;;;;;;;;;;;;;;6.40;100.00;93614.16;5097499;28;19916;-84
2023/01/03 07:40:57;;;;;;;;;;;;;;;6.36;100.00;93618.25;5091681;28;19924;-84
2023/01/03 07:43:39;;;;;;;;;;;;;;;6.36;100.00;93615.66;5085310;28;19915;-84
2023/01/03 07:46:16;;;;;;;;;;;;;;;6.37;100.00;93619.81;5101215;28;19916;-85
2023/01/03 07:48:42;;;;;;;;;;;;;;;6.37;100.00;93610.22;5104230;28;19916;-85
2023/01/03 07:51:08;;;;;;;;;;;;;;;6.38;100.00;93609.19;5117917;28;19981;-85
2023/01/03 07:53:37;;;;;;;;;;;;;;;6.42;100.00;93607.72;5101478;28;19916;-85
2023/01/03 07:56:07;;;;;;;;;;;;;;;6.39;100.00;93597.75;5105764;28;19911;-85
2023/01/03 07:58:33;;;;;;;;;;;;;;;6.41;100.00;93603.50;5111497;28;20031;-81
2023/01/03 08:01:02;;;;;;;;;;;;;;;6.39;100.00;93607.38;5102222;28;20034;-80
2023/01/03 08:03:47;;;;;;;;;;;;;;;6.44;100.00;93600.47;5103653;28;19916;-81
2023/01/03 08:06:14;;;;;;;;;;;;;;;6.44;100.00;93604.88;5065952;28;19919;-81
2023/01/03 08:14:27;;;;;;;;;;;;;;;6.77;100.00;93614.53;5076344;28;19920;-81
2023/01/03 08:16:53;;;;;;;;;;;;;;;6.78;100.00;93621.34;5075894;28;19925;-80
2023/01/03 08:19:18;;;;;;;;;;;;;;;6.69;100.00;93625.34;5076199;28;19992;-81
2023/01/03 08:21:45;;;;;;;;;;;;;;;6.56;100.00;93623.81;5095517;28;20002;-78
2023/01/03 08:24:10;;;;;;;;;;;;;;;6.50;100.00;93629.16;5097348;28;20019;-80
2023/01/03 08:26:36;;;;;;;;;;;;;;;6.46;100.00;93629.63;5097153;28;20261;-80
2023/01/03 08:29:01;;;;;;;;;;;;;;;6.43;100.00;93635.28;5067532;28;19917;-82
2023/01/03 08:31:30;;;;;;;;;;;;;;;6.39;100.00;93634.16;5078721;28;20293;-80
2023/01/03 08:33:59;;;;;;;;;;;;;;;6.40;100.00;93640.19;5078364;28;19909;-81
2023/01/03 08:36:26;;;;;;;;;;;;;;;6.41;100.00;93641.75;5059675;28;19919;-81
2023/01/03 08:38:55;;;;;;;;;;;;;;;6.47;100.00;93646.03;5077959;28;19962;-81
2023/01/03 08:44:58;;;;;;;;;;;;;;;6.40;100.00;93653.19;5078388;28;19966;-81
2023/01/03 08:47:25;;;;;;;;;;;;;;;6.42;100.00;93654.53;5077893;28;19916;-81
2023/01/03 08:49:50;;;;;;;;;;;;;;;6.44;100.00;93657.69;5077731;28;19981;-81
2023/01/03 08:52:16;;;;;;;;;;;;;;;6.45;100.00;93659.25;5059825;28;19923;-80
2023/01/03 08:57:48;;;;;;;;;;;;;;;6.54;100.00;93662.28;5077207;28;19953;-81
2023/01/03 09:00:14;;;;;;;;;;;;;;;6.58;100.00;93658.19;5082544;28;20007;-81
2023/01/03 09:03:07;;;;;;;;;;;;;;;6.59;100.00;93659.75;5099510;28;19916;-81
2023/01/03 09:05:33;;;;;;;;;;;;;;;6.57;100.00;93663.63;5081296;28;19919;-81
2023/01/03 09:07:59;;;;;;;;;;;;;;;6.63;100.00;93665.31;5097578;28;19916;-81
2023/01/03 09:10:25;;;;;;;;;;;;;;;6.56;100.00;93664.66;5096882;28;20026;-81
2023/01/03 09:16:26;;;;;;;;;;;;;;;6.45;100.00;93674.88;5097644;28;20409;-82
2023/01/03 09:22:02;;;;;;;;;;;;;;;6.45;100.00;93672.25;5097992;28;19916;-81
2023/01/03 09:24:27;;;;;;;;;;;;;;;6.41;100.00;93676.34;5078841;28;20027;-82
2023/01/03 09:27:11;;;;;;;;;;;;;;;6.43;100.00;93676.91;5097931;28;20469;-83
2023/01/03 09:29:37;;;;;;;;;;;;;;;6.44;100.00;93678.50;5096868;28;19978;-82
2023/01/03 09:32:04;;;;;;;;;;;;;;;6.40;100.00;93677.38;5097409;28;19912;-81
2023/01/03 09:34:30;;;;;;;;;;;;;;;6.41;100.00;93680.75;5079043;28;19912;-81
2023/01/03 09:36:55;;;;;;;;;;;;;;;6.37;100.00;93683.06;5097660;28;19916;-81
2023/01/03 09:45:13;;;;;;;;;;;;;;;6.41;100.00;93680.75;5095515;28;19930;-81
2023/01/03 09:47:40;;;;;;;;;;;;;;;6.44;100.00;93682.91;5078596;28;19912;-81
2023/01/03 09:50:09;;;;;;;;;;;;;;;6.45;100.00;93680.06;5095334;28;20340;-81
2023/01/03 10:04:52;;;;;;;;;;;;;;;6.71;100.00;93682.34;5096004;28;19918;-80
2023/01/03 10:10:31;;;;;;;;;;;;;;;6.71;100.00;93672.75;5094206;28;20374;-81
2023/01/03 10:12:57;;;;;;;;;;;;;;;6.61;100.00;93672.56;5095911;28;19965;-80
2023/01/03 10:15:42;;;;;;;;;;;;;;;6.60;100.00;93665.78;5077083;28;19908;-80
2023/01/03 10:18:10;;;;;;;;;;;;;;;6.52;100.00;93658.34;5095076;28;19916;-81
2023/01/03 10:20:47;;;;;;;;;;;;;;;6.52;100.00;93659.13;5069451;28;19934;-82
2023/01/03 10:23:33;;;;;;;;;;;;;;;6.45;100.00;93648.06;5062616;28;19912;-84
2023/01/03 10:25:59;;;;;;;;;;;;;;;6.43;100.00;93656.09;5079015;28;20401;-82
2023/01/03 10:28:28;;;;;;;;;;;;;;;6.54;100.00;93646.69;5070258;28;19943;-83
2023/01/03 10:30:53;;;;;;;;;;;;;;;6.61;100.00;93651.75;5112462;28;19915;-82
2023/01/03 10:33:22;;;;;;;;;;;;;;;6.59;100.00;93643.38;5110591;28;19934;-82
2023/01/03 10:35:47;;;;;;;;;;;;;;;6.54;100.00;93643.28;5095100;28;19938;-82
2023/01/03 10:38:14;;;;;;;;;;;;;;;6.50;100.00;93644.78;5094469;28;19920;-82
2023/01/03 10:40:45;;;;;;;;;;;;;;;6.50;100.00;93652.56;5064897;28;19912;-83
2023/01/03 10:43:14;;;;;;;;;;;;;;;6.45;100.00;93648.06;5083795;28;19955;-83
2023/01/03 10:45:58;;;;;;;;;;;;;;;6.73;100.00;93642.06;5084927;28;20361;-83
2023/01/03 10:48:24;;;;;;;;;;;;;;;6.56;100.00;93649.06;5085374;28;19935;-84
2023/01/03 10:51:09;;;;;;;;;;;;;;;6.51;100.00;93647.16;5094850;28;19929;-83
2023/01/03 10:53:38;;;;;;;;;;;;;;;6.49;100.00;93645.81;5085350;28;20358;-83
2023/01/03 10:56:04;;;;;;;;;;;;;;;6.51;100.00;93648.94;5102145;28;19924;-83
2023/01/03 10:58:48;;;;;;;;;;;;;;;6.54;100.00;93644.06;5084456;28;19926;-83
2023/01/03 11:01:23;;;;;;;;;;;;;;;6.59;100.00;93643.38;5095947;28;19920;-83
2023/01/03 11:04:10;;;;;;;;;;;;;;;6.60;100.00;93639.75;5079743;28;20144;-83
2023/01/03 11:06:57;;;;;;;;;;;;;;;6.63;100.00;93634.09;5080719;28;19938;-84
2023/01/03 11:09:23;;;;;;;;;;;;;;;6.67;100.00;93633.38;5082772;28;19924;-84
2023/01/03 11:11:54;;;;;;;;;;;;;;;6.71;100.00;93636.31;5063189;28;19912;-83
2023/01/03 11:14:24;;;;;;;;;;;;;;;6.82;100.00;93632.88;5100978;28;19916;-83
2023/01/03 11:23:35;;;;;;;;;;;;;;;6.58;100.00;93618.41;5122846;28;19918;-82
2023/01/03 11:26:02;;;;;;;;;;;;;;;6.47;100.00;93630.41;5093133;28;19919;-83
2023/01/03 11:29:00;;;;;;;;;;;;;;;6.41;100.00;93626.13;5116785;28;19965;-84
2023/01/03 11:31:39;;;;;;;;;;;;;;;6.41;100.00;93629.53;5062886;28;19935;-85
2023/01/03 11:34:23;;;;;;;;;;;;;;;6.46;100.00;93640.03;5082868;28;19938;-83
2023/01/03 11:37:09;;;;;;;;;;;;;;;6.39;100.00;93623.75;5081724;28;19926;-84
2023/01/03 11:40:00;;;;;;;;;;;;;;;6.35;100.00;93627.88;5065935;28;19912;-83
2023/01/03 11:42:25;;;;;;;;;;;;;;;6.32;100.00;93625.72;5080656;28;20439;-82
2023/01/03 11:45:14;;;;;;;;;;;;;;;6.35;100.00;93625.28;5080714;28;19908;-82
2023/01/03 11:47:39;;;;;;;;;;;;;;;6.37;100.00;93625.03;5075360;28;19912;-82
2023/01/03 11:50:08;;;;;;;;;;;;;;;6.39;100.00;93613.34;5063712;28;19934;-82
2023/01/03 11:52:52;;;;;;;;;;;;;;;6.44;100.00;93615.28;5079431;28;19960;-83
2023/01/03 11:55:27;;;;;;;;;;;;;;;6.50;100.00;93624.75;5085186;28;19918;-82
2023/01/03 11:58:04;;;;;;;;;;;;;;;6.54;100.00;93619.88;5063846;28;19923;-83
2023/01/03 12:00:30;;;;;;;;;;;;;;;6.56;100.00;93612.63;5078657;28;19970;-82
2023/01/03 12:02:55;;;;;;;;;;;;;;;6.59;100.00;93607.72;5098922;28;20381;-82
2023/01/03 12:05:29;;;;;;;;;;;;;;;6.60;100.00;93605.94;5079792;28;19912;-81
2023/01/03 12:08:17;;;;;;;;;;;;;;;6.62;100.00;93609.06;5080331;28;19920;-82
2023/01/03 12:10:52;;;;;;;;;;;;;;;6.65;100.00;93598.22;5092258;28;19912;-83
2023/01/03 12:13:47;;;;;;;;;;;;;;;6.68;100.00;93595.13;5064988;28;19912;-82
2023/01/03 12:16:19;;;;;;;;;;;;;;;6.79;100.00;93596.88;5072596;28;19918;-82
2023/01/03 12:18:52;;;;;;;;;;;;;;;6.74;100.00;93589.00;5080746;28;20408;-82
2023/01/03 12:21:20;;;;;;;;;;;;;;;6.64;100.00;93591.41;5116832;28;19896;-83
2023/01/03 12:24:24;;;;;;;;;;;;;;;6.62;100.00;93585.66;5104603;28;19911;-82
2023/01/03 12:26:53;;;;;;;;;;;;;;;6.70;100.00;93585.28;5051040;28;19941;-83
2023/01/03 12:29:30;;;;;;;;;;;;;;;6.64;100.00;93588.81;5067150;28;19955;-84
2023/01/03 12:31:58;;;;;;;;;;;;;;;6.65;100.00;93580.00;5065755;28;19977;-84
2023/01/03 12:34:36;;;;;;;;;;;;;;;6.71;100.00;93573.88;5102931;28;19945;-83
2023/01/03 12:37:02;;;;;;;;;;;;;;;6.71;100.00;93573.06;5091340;28;19915;-83
2023/01/03 12:39:32;;;;;;;;;;;;;;;6.65;100.00;93578.19;5066813;28;19907;-82
2023/01/03 12:42:09;;;;;;;;;;;;;;;6.74;100.00;93573.38;5074783;28;19912;-82
2023/01/03 12:44:39;;;;;;;;;;;;;;;6.69;100.00;93575.91;5101650;28;20014;-83
2023/01/03 12:47:09;;;;;;;;;;;;;;;6.65;100.00;93578.19;5101455;28;20446;-83
2023/01/03 12:49:42;;;;;;;;;;;;;;;6.68;100.00;93575.09;5097897;28;19919;-83
2023/01/03 12:52:12;;;;;;;;;;;;;;;6.79;100.00;93578.66;5076244;28;19934;-83
2023/01/03 12:54:38;;;;;;;;;;;;;;;6.70;100.00;93577.47;5096720;28;19955;-83
2023/01/03 12:57:09;;;;;;;;;;;;;;;6.71;100.00;93573.88;5081047;28;19922;-83
2023/01/03 12:59:49;;;;;;;;;;;;;;;6.74;100.00;93568.19;5039990;28;1364739;-83
2023/01/03 13:02:20;;;;;;;;;;;;;;;6.75;100.00;93564.53;5076319;28;20285;-84
2023/01/03 13:04:48;;;;;;;;;;;;;;;6.70;100.00;93561.88;5083859;28;19975;-80
2023/01/03 13:07:18;;;;;;;;;;;;;;;6.62;100.00;93564.84;5098503;28;19919;-81
2023/01/03 13:09:48;;;;;;;;;;;;;;;6.54;100.00;93560.03;5101313;28;19916;-82
2023/01/03 13:12:16;;;;;;;;;;;;;;;6.58;100.00;93559.34;5086247;28;19923;-81
2023/01/03 13:14:56;;;;;;;;;;;;;;;6.60;100.00;93561.72;5073536;28;20007;-82
2023/01/03 13:17:24;;;;;;;;;;;;;;;6.59;100.00;93565.31;5082272;28;19916;-81
2023/01/03 13:19:51;;;;;;;;;;;;;;;6.57;100.00;93556.97;5100698;28;19912;-82
2023/01/03 13:22:35;;;;;;;;;;;;;;;6.67;100.00;93552.72;5080605;28;19995;-82
2023/01/03 13:25:19;;;;;;;;;;;;;;;6.75;100.00;93553.34;5081952;28;20321;-83
2023/01/03 13:27:49;;;;;;;;;;;;;;;6.73;100.00;93540.56;5081960;28;19942;-83
2023/01/03 13:30:23;;;;;;;;;;;;;;;6.76;100.00;93544.53;5077652;28;19912;-83
2023/01/03 13:33:07;;;;;;;;;;;;;;;6.79;100.00;93542.22;5068614;28;19984;-82
2023/01/03 13:35:34;;;;;;;;;;;;;;;6.80;100.00;93546.44;5087132;28;19911;-82
2023/01/03 13:38:15;;;;;;;;;;;;;;;6.78;100.00;93540.66;5077362;28;19967;-82
2023/01/03 13:40:43;;;;;;;;;;;;;;;6.84;100.00;93537.09;5069727;28;19912;-82
2023/01/03 13:43:20;;;;;;;;;;;;;;;6.92;100.00;93537.75;5066817;28;19912;-82
2023/01/03 13:45:45;;;;;;;;;;;;;;;6.85;100.00;93543.91;5085712;28;19971;-82
2023/01/03 13:48:11;;;;;;;;;;;;;;;6.83;100.00;93543.34;5079025;28;19985;-82
2023/01/03 13:50:37;;;;;;;;;;;;;;;6.78;100.00;93532.88;5065466;28;19922;-82
2023/01/03 13:53:08;;;;;;;;;;;;;;;6.77;100.00;93541.69;5095763;28;19912;-82
2023/01/03 13:55:37;;;;;;;;;;;;;;;6.76;100.00;93539.34;5093217;28;19938;-82
2023/01/03 13:58:22;;;;;;;;;;;;;;;6.79;100.00;93542.22;5093747;28;19916;-82
2023/01/03 14:00:47;;;;;;;;;;;;;;;6.79;100.00;93544.06;5104745;28;19915;-84
2023/01/03 14:03:28;;;;;;;;;;;;;;;6.76;100.00;93544.53;5080776;28;20208;-81
2023/01/03 14:06:06;;;;;;;;;;;;;;;6.80;100.00;93546.44;5096330;28;20167;-82
2023/01/03 14:08:39;;;;;;;;;;;;;;;6.86;100.00;93540.25;5060112;28;20354;-86
2023/01/03 14:11:05;;;;;;;;;;;;;;;6.90;100.00;93539.81;5077085;28;20371;-82
2023/01/03 14:13:43;;;;;;;;;;;;;;;6.87;100.00;93552.25;5073214;28;20124;-82
2023/01/03 14:16:14;;;;;;;;;;;;;;;6.92;100.00;93550.78;5092350;28;19912;-82
2023/01/03 14:18:40;;;;;;;;;;;;;;;6.82;100.00;93559.19;5076178;28;19923;-82
2023/01/03 14:21:06;;;;;;;;;;;;;;;6.83;100.00;93564.16;5063799;28;19908;-82
2023/01/03 14:23:32;;;;;;;;;;;;;;;6.83;100.00;93560.78;5068699;28;19923;-82
2023/01/03 14:26:11;;;;;;;;;;;;;;;6.67;100.00;93563.13;5077414;28;19949;-81
2023/01/03 14:28:37;;;;;;;;;;;;;;;6.68;100.00;93564.69;5062678;28;19916;-81
2023/01/03 14:31:04;;;;;;;;;;;;;;;6.63;100.00;93566.44;5078421;28;19922;-82